Time;durP1;ratioP1;P1;durP2;ratioP2;P2;SDS_P1;SDS_P2;PMS_P1;PMS_P2;Temp;Humidity;BMP_temperature;BMP_pressure;BME280_temperature;BME280_humidity;BME280_pressure;Samples;Min_cycle;Max_cycle;Signal;HPM_P1;HPM_P2
2022/10/19 00:01:46;;;;;;;;;;;17.90;99.90;;;;;;5030514;28;19991;-74
2022/10/19 00:04:12;;;;;;;;;;;17.90;99.90;;;;;;5030346;28;20365;-74
2022/10/19 00:06:38;;;;;;;;;;;17.90;99.90;;;;;;5030049;28;19917;-74
2022/10/19 00:09:09;;;;;;;;;;;17.90;99.90;;;;;;5030139;28;20444;-74
2022/10/19 00:11:37;;;;;;;;;;;17.90;99.90;;;;;;5030455;28;19909;-73
2022/10/19 00:14:04;;;;;;;;;;;17.90;99.90;;;;;;5030193;28;19905;-73
2022/10/19 00:16:31;;;;;;;;;;;17.80;99.90;;;;;;5030506;28;20200;-75
2022/10/19 00:18:58;;;;;;;;;;;17.80;99.90;;;;;;5030473;28;19920;-73
2022/10/19 00:21:26;;;;;;;;;;;17.70;99.90;;;;;;5012321;28;20320;-74
2022/10/19 00:23:52;;;;;;;;;;;17.70;99.90;;;;;;5030548;28;20215;-75
2022/10/19 00:26:17;;;;;;;;;;;17.70;99.90;;;;;;5030198;28;19996;-74
2022/10/19 00:28:44;;;;;;;;;;;17.70;99.90;;;;;;5033009;28;19971;-74
2022/10/19 00:31:12;;;;;;;;;;;17.70;99.90;;;;;;5033866;28;19905;-74
2022/10/19 00:33:37;;;;;;;;;;;17.80;99.90;;;;;;5033801;28;19973;-74
2022/10/19 00:36:03;;;;;;;;;;;17.90;99.90;;;;;;5015637;28;20000;-74
2022/10/19 00:38:30;;;;;;;;;;;18.00;99.90;;;;;;5033494;28;20269;-75
2022/10/19 00:40:56;;;;;;;;;;;18.20;99.90;;;;;;5033710;28;19905;-74
2022/10/19 00:43:27;;;;;;;;;;;18.30;99.90;;;;;;5015486;28;20319;-75
2022/10/19 00:45:52;;;;;;;;;;;18.40;99.90;;;;;;5033820;28;19909;-74
2022/10/19 00:48:24;;;;;;;;;;;18.40;99.90;;;;;;5033425;28;20012;-74
2022/10/19 00:50:51;;;;;;;;;;;18.40;99.90;;;;;;5033254;28;19905;-74
2022/10/19 00:53:20;;;;;;;;;;;18.40;99.90;;;;;;5033223;28;19955;-72
2022/10/19 00:55:46;;;;;;;;;;;18.50;99.90;;;;;;5033616;28;19912;-74
2022/10/19 00:58:12;;;;;;;;;;;18.50;99.90;;;;;;5033416;28;19905;-74
2022/10/19 01:00:39;;;;;;;;;;;18.40;99.90;;;;;;5033132;28;19905;-74
2022/10/19 01:03:05;;;;;;;;;;;18.50;99.90;;;;;;5033431;28;20353;-74
2022/10/19 01:05:32;;;;;;;;;;;18.50;99.90;;;;;;5032755;28;20290;-74
2022/10/19 01:07:59;;;;;;;;;;;18.50;99.90;;;;;;5033082;28;19913;-74
2022/10/19 01:10:31;;;;;;;;;;;18.40;99.90;;;;;;5032860;28;20008;-73
2022/10/19 01:13:13;;;;;;;;;;;18.40;99.90;;;;;;5032976;28;19916;-74
2022/10/19 01:15:57;;;;;;;;;;;18.30;99.90;;;;;;5032698;28;19909;-75
2022/10/19 01:18:26;;;;;;;;;;;18.30;99.90;;;;;;5014679;28;19916;-74
2022/10/19 01:21:09;;;;;;;;;;;18.30;99.90;;;;;;5014446;28;20004;-74
2022/10/19 01:23:41;;;;;;;;;;;18.30;99.90;;;;;;5014745;28;19931;-74
2022/10/19 01:26:19;;;;;;;;;;;18.30;99.90;;;;;;5032665;28;20277;-74
2022/10/19 01:28:59;;;;;;;;;;;18.30;99.90;;;;;;5032567;28;19943;-74
2022/10/19 01:31:44;;;;;;;;;;;18.30;99.90;;;;;;5014658;28;19912;-74
2022/10/19 01:34:13;;;;;;;;;;;18.30;99.90;;;;;;5032733;28;19905;-74
2022/10/19 01:36:45;;;;;;;;;;;18.30;99.90;;;;;;5032410;28;20271;-75
2022/10/19 01:39:31;;;;;;;;;;;18.30;99.90;;;;;;5014648;28;19990;-73
2022/10/19 01:42:23;;;;;;;;;;;18.20;99.90;;;;;;5032166;28;19965;-73
2022/10/19 01:45:01;;;;;;;;;;;18.20;99.90;;;;;;5032134;28;20006;-74
2022/10/19 01:47:31;;;;;;;;;;;18.20;99.90;;;;;;5014841;28;19920;-72
2022/10/19 01:50:11;;;;;;;;;;;18.20;99.90;;;;;;5032336;28;19913;-73
2022/10/19 01:52:38;;;;;;;;;;;18.20;99.90;;;;;;5032349;28;20015;-74
2022/10/19 01:55:04;;;;;;;;;;;18.20;99.90;;;;;;5032089;28;20318;-74
2022/10/19 01:57:35;;;;;;;;;;;18.20;99.90;;;;;;5031835;28;19905;-74
2022/10/19 02:00:06;;;;;;;;;;;18.20;99.90;;;;;;5031993;28;19936;-74
2022/10/19 02:02:33;;;;;;;;;;;18.20;99.90;;;;;;5014147;28;20380;-74
2022/10/19 02:05:00;;;;;;;;;;;18.20;99.90;;;;;;5031637;28;19927;-73
2022/10/19 02:07:26;;;;;;;;;;;18.10;99.90;;;;;;5032319;28;20007;-74
2022/10/19 02:09:52;;;;;;;;;;;18.10;99.90;;;;;;5032071;28;20408;-75
2022/10/19 02:12:19;;;;;;;;;;;18.10;99.90;;;;;;5031980;28;19905;-74
2022/10/19 02:14:46;;;;;;;;;;;18.10;99.90;;;;;;5031979;28;20265;-74
2022/10/19 02:17:14;;;;;;;;;;;18.10;99.90;;;;;;5031717;28;19928;-74
2022/10/19 02:19:40;;;;;;;;;;;18.10;99.90;;;;;;5032099;28;20320;-74
2022/10/19 02:22:06;;;;;;;;;;;18.20;99.90;;;;;;5013671;28;19987;-73
2022/10/19 02:24:33;;;;;;;;;;;18.10;99.90;;;;;;5031823;28;19951;-74
2022/10/19 02:26:59;;;;;;;;;;;18.10;99.90;;;;;;5012856;28;19905;-73
2022/10/19 02:29:25;;;;;;;;;;;18.10;99.90;;;;;;5013909;28;20007;-74
2022/10/19 02:31:51;;;;;;;;;;;18.00;99.90;;;;;;5031315;28;19905;-73
2022/10/19 02:34:17;;;;;;;;;;;18.00;99.90;;;;;;5031153;28;19909;-72
2022/10/19 02:36:44;;;;;;;;;;;18.00;99.90;;;;;;5031323;28;19977;-74
2022/10/19 02:39:10;;;;;;;;;;;18.00;99.90;;;;;;5013408;28;20326;-74
2022/10/19 02:41:39;;;;;;;;;;;17.90;99.90;;;;;;5031200;28;19951;-74
2022/10/19 02:44:08;;;;;;;;;;;17.90;99.90;;;;;;5013026;28;19976;-74
2022/10/19 02:46:37;;;;;;;;;;;17.80;99.90;;;;;;5031152;28;19928;-74
2022/10/19 02:49:05;;;;;;;;;;;17.80;99.90;;;;;;5031135;28;19913;-75
2022/10/19 02:51:30;;;;;;;;;;;17.70;99.90;;;;;;5012762;28;20000;-74
2022/10/19 02:53:56;;;;;;;;;;;17.70;99.90;;;;;;5030992;28;19996;-73
2022/10/19 02:56:22;;;;;;;;;;;17.70;99.90;;;;;;5031471;28;20362;-73
2022/10/19 02:58:48;;;;;;;;;;;17.70;99.90;;;;;;5014138;28;20012;-73
2022/10/19 03:01:14;;;;;;;;;;;17.70;99.90;;;;;;5032032;28;19905;-74
2022/10/19 03:03:41;;;;;;;;;;;17.70;99.90;;;;;;5031953;28;19931;-74
2022/10/19 03:06:07;;;;;;;;;;;17.80;99.90;;;;;;5031177;28;19921;-73
2022/10/19 03:08:32;;;;;;;;;;;17.80;99.90;;;;;;5031121;28;19913;-73
2022/10/19 03:10:58;;;;;;;;;;;17.80;99.90;;;;;;5031603;28;19912;-73
2022/10/19 03:13:24;;;;;;;;;;;17.80;99.90;;;;;;5031175;28;19905;-74
2022/10/19 03:15:50;;;;;;;;;;;17.80;99.90;;;;;;5031391;28;19905;-73
2022/10/19 03:18:16;;;;;;;;;;;17.80;99.90;;;;;;5031512;28;20082;-74
2022/10/19 03:20:43;;;;;;;;;;;17.90;99.90;;;;;;5031656;28;20361;-74
2022/10/19 03:23:09;;;;;;;;;;;17.90;99.90;;;;;;5014056;28;19905;-75
2022/10/19 03:25:34;;;;;;;;;;;17.90;99.90;;;;;;5031783;28;19905;-75
2022/10/19 03:28:07;;;;;;;;;;;17.90;99.90;;;;;;5032141;28;19913;-75
2022/10/19 03:30:33;;;;;;;;;;;18.00;99.90;;;;;;5032584;28;19905;-74
2022/10/19 03:33:00;;;;;;;;;;;18.00;99.90;;;;;;5032165;28;19912;-75
2022/10/19 03:35:28;;;;;;;;;;;18.00;99.90;;;;;;5031882;28;19951;-72
2022/10/19 03:37:54;;;;;;;;;;;18.00;99.90;;;;;;5032113;28;19905;-74
2022/10/19 03:40:22;;;;;;;;;;;18.00;99.90;;;;;;5032146;28;19909;-74
2022/10/19 03:42:47;;;;;;;;;;;18.00;99.90;;;;;;5032423;28;20003;-73
2022/10/19 03:45:16;;;;;;;;;;;18.10;99.90;;;;;;5032212;28;20000;-75
2022/10/19 03:47:42;;;;;;;;;;;18.20;99.90;;;;;;5032039;28;19909;-75
2022/10/19 03:50:10;;;;;;;;;;;18.10;99.90;;;;;;5032140;28;19982;-75
2022/10/19 03:52:36;;;;;;;;;;;18.10;99.90;;;;;;5019524;28;20036;-75
2022/10/19 03:55:02;;;;;;;;;;;18.20;99.90;;;;;;5012319;28;19906;-73
2022/10/19 03:57:28;;;;;;;;;;;18.20;99.90;;;;;;5012555;28;19946;-74
2022/10/19 03:59:54;;;;;;;;;;;18.10;99.90;;;;;;5013128;28;20262;-75
2022/10/19 04:02:20;;;;;;;;;;;18.10;99.90;;;;;;5012800;28;20003;-74
2022/10/19 04:04:45;;;;;;;;;;;18.10;99.90;;;;;;5015854;28;19928;-73
2022/10/19 04:07:11;;;;;;;;;;;18.10;99.90;;;;;;5016067;28;19925;-74
2022/10/19 04:09:38;;;;;;;;;;;18.00;99.90;;;;;;5015921;28;19992;-74
2022/10/19 04:12:04;;;;;;;;;;;18.00;99.90;;;;;;5016731;28;20007;-75
2022/10/19 04:14:30;;;;;;;;;;;18.00;99.90;;;;;;5016004;28;19909;-75
2022/10/19 04:16:56;;;;;;;;;;;18.00;99.90;;;;;;5017204;28;19905;-74
2022/10/19 04:19:22;;;;;;;;;;;18.00;99.90;;;;;;5016859;28;19913;-73
2022/10/19 04:21:48;;;;;;;;;;;18.00;99.90;;;;;;5016725;28;19971;-74
2022/10/19 04:24:15;;;;;;;;;;;18.00;99.90;;;;;;5017037;28;20362;-75
2022/10/19 04:26:44;;;;;;;;;;;18.10;99.90;;;;;;5016330;28;19959;-75
2022/10/19 04:29:10;;;;;;;;;;;18.00;99.90;;;;;;5016433;28;19960;-75
2022/10/19 04:31:36;;;;;;;;;;;18.10;99.90;;;;;;4982764;28;19909;-74
2022/10/19 04:34:02;;;;;;;;;;;18.00;99.90;;;;;;5016548;28;20259;-75
2022/10/19 04:36:31;;;;;;;;;;;18.00;99.90;;;;;;5016204;28;19933;-75
2022/10/19 04:38:57;;;;;;;;;;;17.90;99.90;;;;;;5016196;28;20241;-75
2022/10/19 04:41:23;;;;;;;;;;;18.00;99.90;;;;;;5016797;28;20435;-74
2022/10/19 04:43:54;;;;;;;;;;;18.00;99.90;;;;;;5015993;28;20277;-74
2022/10/19 04:46:20;;;;;;;;;;;17.90;99.90;;;;;;5016184;28;20047;-75
2022/10/19 04:48:47;;;;;;;;;;;17.90;99.90;;;;;;5016010;28;19913;-76
2022/10/19 04:51:13;;;;;;;;;;;17.90;99.90;;;;;;5016584;28;20403;-75
2022/10/19 04:53:40;;;;;;;;;;;17.90;99.90;;;;;;5016174;28;19912;-76
2022/10/19 04:56:09;;;;;;;;;;;17.80;99.90;;;;;;5015544;28;19927;-76
2022/10/19 04:58:35;;;;;;;;;;;17.80;99.90;;;;;;4981604;28;19987;-75
2022/10/19 05:01:08;;;;;;;;;;;17.80;99.90;;;;;;5015438;28;19910;-76
2022/10/19 05:03:37;;;;;;;;;;;17.80;99.90;;;;;;5015889;28;19927;-77
2022/10/19 05:06:03;;;;;;;;;;;17.90;99.90;;;;;;4997094;28;19999;-77
2022/10/19 05:08:29;;;;;;;;;;;17.90;99.90;;;;;;5014721;28;20390;-70
2022/10/19 05:10:59;;;;;;;;;;;17.80;99.90;;;;;;5014796;28;19996;-71
2022/10/19 05:13:26;;;;;;;;;;;17.80;99.90;;;;;;5014454;28;19984;-71
2022/10/19 05:16:00;;;;;;;;;;;17.80;99.90;;;;;;5015148;28;19996;-70
2022/10/19 05:18:28;;;;;;;;;;;18.00;99.90;;;;;;4997621;28;19913;-71
2022/10/19 05:21:01;;;;;;;;;;;17.90;99.90;;;;;;5014537;28;19905;-71
2022/10/19 05:23:28;;;;;;;;;;;17.90;99.90;;;;;;4997388;28;19905;-71
2022/10/19 05:26:00;;;;;;;;;;;17.90;99.90;;;;;;5014979;28;19928;-71
2022/10/19 05:28:26;;;;;;;;;;;17.90;99.90;;;;;;5014071;28;19913;-71
2022/10/19 05:30:53;;;;;;;;;;;18.00;99.90;;;;;;4996395;28;19909;-71
2022/10/19 05:33:19;;;;;;;;;;;18.00;99.90;;;;;;5013688;28;19905;-71
2022/10/19 05:35:45;;;;;;;;;;;18.00;99.90;;;;;;4997183;28;19964;-70
2022/10/19 05:38:11;;;;;;;;;;;18.00;99.90;;;;;;4996877;28;20219;-71
2022/10/19 05:40:37;;;;;;;;;;;18.10;99.90;;;;;;4996122;28;19996;-66
2022/10/19 05:43:02;;;;;;;;;;;18.10;99.90;;;;;;5014244;28;20342;-67
2022/10/19 05:45:29;;;;;;;;;;;18.20;99.90;;;;;;5013882;28;20309;-70
2022/10/19 05:47:55;;;;;;;;;;;18.40;99.90;;;;;;4996012;28;20310;-71
2022/10/19 05:50:21;;;;;;;;;;;19.20;99.90;;;;;;5013449;28;19944;-71
2022/10/19 05:52:46;;;;;;;;;;;20.20;99.90;;;;;;5013552;28;19909;-70
2022/10/19 05:55:12;;;;;;;;;;;21.10;99.90;;;;;;5013317;28;20000;-70
2022/10/19 05:57:38;;;;;;;;;;;21.90;99.90;;;;;;5012881;28;19917;-69
2022/10/19 06:00:04;;;;;;;;;;;22.80;99.90;;;;;;5013178;28;19906;-70
2022/10/19 06:02:30;;;;;;;;;;;23.70;99.90;;;;;;5012999;28;19952;-70
2022/10/19 06:04:56;;;;;;;;;;;24.50;99.90;;;;;;5012805;28;20329;-69
2022/10/19 06:07:22;;;;;;;;;;;24.90;99.90;;;;;;5012930;28;20294;-70
2022/10/19 06:09:50;;;;;;;;;;;25.30;99.90;;;;;;4994908;28;19952;-71
2022/10/19 06:12:17;;;;;;;;;;;25.10;99.90;;;;;;5013042;28;20429;-71
2022/10/19 06:14:43;;;;;;;;;;;24.40;99.90;;;;;;5012837;28;19916;-70
2022/10/19 06:17:09;;;;;;;;;;;24.10;99.90;;;;;;5012779;28;19936;-69
2022/10/19 06:19:35;;;;;;;;;;;23.20;99.90;;;;;;5017893;28;20267;-68
2022/10/19 06:22:01;;;;;;;;;;;23.40;99.90;;;;;;5018740;28;20303;-68
2022/10/19 06:24:29;;;;;;;;;;;23.80;99.90;;;;;;5032099;28;19966;-70
2022/10/19 06:26:58;;;;;;;;;;;23.90;99.90;;;;;;5032030;28;20340;-67
2022/10/19 06:29:24;;;;;;;;;;;23.70;99.90;;;;;;5032813;28;19959;-71
2022/10/19 06:31:53;;;;;;;;;;;24.00;99.90;;;;;;5032630;28;19905;-69
2022/10/19 06:34:18;;;;;;;;;;;24.10;99.90;;;;;;5014677;28;20440;-70
2022/10/19 06:36:44;;;;;;;;;;;24.70;99.90;;;;;;5013283;28;19933;-71
2022/10/19 06:39:10;;;;;;;;;;;24.80;99.90;;;;;;5013186;28;19905;-71
2022/10/19 06:41:36;;;;;;;;;;;24.90;99.90;;;;;;5013108;28;19917;-70
2022/10/19 06:44:02;;;;;;;;;;;24.90;99.90;;;;;;5013435;28;19948;-72
2022/10/19 06:46:28;;;;;;;;;;;25.30;99.90;;;;;;4995534;28;19921;-71
2022/10/19 06:48:55;;;;;;;;;;;25.90;99.90;;;;;;5013101;28;19913;-70
2022/10/19 06:51:22;;;;;;;;;;;26.50;99.90;;;;;;5013314;28;19909;-69
2022/10/19 06:53:48;;;;;;;;;;;26.80;99.90;;;;;;5012885;28;19955;-70
2022/10/19 06:56:15;;;;;;;;;;;27.60;99.90;;;;;;5012857;28;20035;-71
2022/10/19 06:58:42;;;;;;;;;;;28.20;99.90;;;;;;5013325;28;19909;-70
2022/10/19 07:01:09;;;;;;;;;;;28.60;99.90;;;;;;5013081;28;19972;-70
2022/10/19 07:03:35;;;;;;;;;;;28.70;99.90;;;;;;5013197;28;19933;-70
2022/10/19 07:06:04;;;;;;;;;;;28.30;99.90;;;;;;5012696;28;19957;-69
2022/10/19 07:08:30;;;;;;;;;;;27.40;99.90;;;;;;5012480;28;19917;-71
2022/10/19 07:10:57;;;;;;;;;;;26.50;99.90;;;;;;5012772;28;19911;-70
2022/10/19 07:13:24;;;;;;;;;;;25.90;99.90;;;;;;5013252;28;19963;-70
2022/10/19 07:15:55;;;;;;;;;;;26.00;99.90;;;;;;5012682;28;19905;-71
2022/10/19 07:18:21;;;;;;;;;;;26.10;99.90;;;;;;5013127;28;19964;-69
2022/10/19 07:20:53;;;;;;;;;;;26.10;99.90;;;;;;5013214;28;19909;-70
2022/10/19 07:23:20;;;;;;;;;;;25.60;99.90;;;;;;5012665;28;19905;-69
2022/10/19 07:25:47;;;;;;;;;;;25.00;99.90;;;;;;5013185;28;20408;-71
2022/10/19 07:28:14;;;;;;;;;;;24.90;99.90;;;;;;5012538;28;19913;-70
2022/10/19 07:30:40;;;;;;;;;;;24.30;99.90;;;;;;4994656;28;19905;-71
2022/10/19 07:33:06;;;;;;;;;;;24.00;99.90;;;;;;5012552;28;19905;-69
2022/10/19 07:35:37;;;;;;;;;;;24.00;99.90;;;;;;5012649;28;19992;-71
2022/10/19 07:38:07;;;;;;;;;;;23.60;99.90;;;;;;5016355;28;20358;-71
2022/10/19 07:40:33;;;;;;;;;;;23.50;99.90;;;;;;5016670;28;20345;-69
2022/10/19 07:42:59;;;;;;;;;;;23.30;99.90;;;;;;5016760;28;19913;-70
2022/10/19 07:45:25;;;;;;;;;;;22.90;99.90;;;;;;5016495;28;19905;-70
2022/10/19 07:47:51;;;;;;;;;;;22.80;99.90;;;;;;5016430;28;20412;-71
2022/10/19 07:50:16;;;;;;;;;;;22.70;99.90;;;;;;5016426;28;19924;-69
2022/10/19 07:52:42;;;;;;;;;;;22.70;99.90;;;;;;5015954;28;19909;-69
2022/10/19 07:55:08;;;;;;;;;;;22.60;99.90;;;;;;5015787;28;19958;-69
2022/10/19 07:57:35;;;;;;;;;;;22.80;99.90;;;;;;5015766;28;19912;-70
2022/10/19 08:00:01;;;;;;;;;;;22.80;99.90;;;;;;5015477;28;19905;-69
2022/10/19 08:02:27;;;;;;;;;;;23.00;99.90;;;;;;5015401;28;19971;-69
2022/10/19 08:04:53;;;;;;;;;;;23.10;99.90;;;;;;5015421;28;19952;-69
2022/10/19 08:07:19;;;;;;;;;;;23.20;99.90;;;;;;4997484;28;19956;-68
2022/10/19 08:09:44;;;;;;;;;;;23.20;99.90;;;;;;5014862;28;19970;-69
2022/10/19 08:12:10;;;;;;;;;;;23.40;99.90;;;;;;5015237;28;19906;-70
2022/10/19 08:14:36;;;;;;;;;;;23.60;99.90;;;;;;5014672;28;20322;-69
2022/10/19 08:17:02;;;;;;;;;;;23.80;99.90;;;;;;5015716;28;20306;-71
2022/10/19 08:19:28;;;;;;;;;;;24.00;99.90;;;;;;5015810;28;19994;-68
2022/10/19 08:21:54;;;;;;;;;;;24.10;99.90;;;;;;5016048;28;19984;-70
2022/10/19 08:24:20;;;;;;;;;;;24.30;99.90;;;;;;5015547;28;20024;-64
2022/10/19 08:26:46;;;;;;;;;;;24.30;99.90;;;;;;5006468;28;19916;-66
2022/10/19 08:29:19;;;;;;;;;;;24.40;99.90;;;;;;5032464;28;19913;-71
2022/10/19 08:31:45;;;;;;;;;;;24.50;99.90;;;;;;5035465;28;20377;-70
2022/10/19 08:34:12;;;;;;;;;;;24.70;99.90;;;;;;5036152;28;19905;-70
2022/10/19 08:36:38;;;;;;;;;;;24.90;99.90;;;;;;5036012;28;20266;-70
2022/10/19 08:39:06;;;;;;;;;;;24.80;99.90;;;;;;5035798;28;20361;-70
2022/10/19 08:41:54;;;;;;;;;;;25.00;99.90;;;;;;5017471;28;20502;-71
2022/10/19 08:44:39;;;;;;;;;;;25.10;99.90;;;;;;5035733;28;19909;-69
2022/10/19 08:47:10;;;;;;;;;;;25.20;99.90;;;;;;5035472;28;19936;-70
2022/10/19 08:49:37;;;;;;;;;;;25.30;99.90;;;;;;5034422;28;20344;-70
2022/10/19 08:52:23;;;;;;;;;;;25.30;99.90;;;;;;5034698;28;19905;-70
2022/10/19 08:54:50;;;;;;;;;;;24.80;99.90;;;;;;5034800;28;19979;-69
2022/10/19 08:57:31;;;;;;;;;;;24.30;99.90;;;;;;5034810;28;19905;-70
2022/10/19 09:00:15;;;;;;;;;;;23.80;99.90;;;;;;5016706;28;19909;-69
2022/10/19 09:03:00;;;;;;;;;;;23.80;99.90;;;;;;5034862;28;19971;-71
2022/10/19 09:05:32;;;;;;;;;;;23.70;99.90;;;;;;5016419;28;20369;-70
2022/10/19 09:07:58;;;;;;;;;;;23.50;99.90;;;;;;5016381;28;20437;-69
2022/10/19 09:10:34;;;;;;;;;;;23.30;99.90;;;;;;5034740;28;19912;-69
2022/10/19 09:13:03;;;;;;;;;;;23.40;99.90;;;;;;5034168;28;19912;-69
2022/10/19 09:15:55;;;;;;;;;;;23.50;99.90;;;;;;5034584;28;19909;-70
2022/10/19 09:18:22;;;;;;;;;;;23.40;99.90;;;;;;5029560;28;19909;-70
2022/10/19 09:20:49;;;;;;;;;;;23.60;99.90;;;;;;5034286;28;19958;-67
2022/10/19 09:23:19;;;;;;;;;;;23.50;99.90;;;;;;5034733;28;20435;-67
2022/10/19 09:25:47;;;;;;;;;;;23.30;99.90;;;;;;5034001;28;19905;-69
2022/10/19 09:28:15;;;;;;;;;;;23.50;99.90;;;;;;5033923;28;20258;-69
2022/10/19 09:30:43;;;;;;;;;;;23.30;99.90;;;;;;5033997;28;19906;-69
2022/10/19 09:33:14;;;;;;;;;;;23.30;99.90;;;;;;5033893;28;20241;-69
2022/10/19 09:35:43;;;;;;;;;;;23.50;99.90;;;;;;5033521;28;19912;-69
2022/10/19 09:38:11;;;;;;;;;;;23.70;99.90;;;;;;5034108;28;19916;-68
2022/10/19 09:40:37;;;;;;;;;;;23.80;99.90;;;;;;5033704;28;20003;-69
2022/10/19 09:43:19;;;;;;;;;;;24.20;99.90;;;;;;5015530;28;19997;-69
2022/10/19 09:45:57;;;;;;;;;;;24.50;99.90;;;;;;5033657;28;19905;-69
2022/10/19 09:48:37;;;;;;;;;;;25.00;99.90;;;;;;5033517;28;20341;-69
2022/10/19 09:51:09;;;;;;;;;;;25.10;99.90;;;;;;5034139;28;19951;-69
2022/10/19 09:53:35;;;;;;;;;;;25.10;99.90;;;;;;5015460;28;19905;-69
2022/10/19 09:56:05;;;;;;;;;;;25.20;99.90;;;;;;5033503;28;19905;-69
2022/10/19 09:58:33;;;;;;;;;;;25.40;99.90;;;;;;5015248;28;19927;-69
2022/10/19 10:01:00;;;;;;;;;;;25.60;99.90;;;;;;5032289;28;19966;-68
2022/10/19 10:03:40;;;;;;;;;;;25.60;99.90;;;;;;5032888;28;19912;-69
2022/10/19 10:06:08;;;;;;;;;;;25.90;99.90;;;;;;5032748;28;20309;-67
2022/10/19 10:08:39;;;;;;;;;;;26.10;99.90;;;;;;5033272;28;20372;-69
2022/10/19 10:11:10;;;;;;;;;;;26.20;99.90;;;;;;5033103;28;19909;-71
2022/10/19 10:13:47;;;;;;;;;;;26.10;99.90;;;;;;5033105;28;19957;-71
2022/10/19 10:16:16;;;;;;;;;;;26.20;99.90;;;;;;5033066;28;19905;-70
2022/10/19 10:18:48;;;;;;;;;;;26.10;99.90;;;;;;5032487;28;20364;-72
2022/10/19 10:21:19;;;;;;;;;;;26.10;99.90;;;;;;5032551;28;20191;-72
2022/10/19 10:23:57;;;;;;;;;;;26.10;99.90;;;;;;5032674;28;19905;-71
2022/10/19 10:26:24;;;;;;;;;;;26.20;99.90;;;;;;5015183;28;20004;-70
2022/10/19 10:28:50;;;;;;;;;;;26.30;99.90;;;;;;5014454;28;20364;-70
2022/10/19 10:31:26;;;;;;;;;;;26.50;99.90;;;;;;5032698;28;19940;-70
2022/10/19 10:33:55;;;;;;;;;;;26.50;99.90;;;;;;5032623;28;19967;-70
2022/10/19 10:36:23;;;;;;;;;;;26.40;99.90;;;;;;5032789;28;19909;-73
2022/10/19 10:38:50;;;;;;;;;;;26.50;99.90;;;;;;5032846;28;19945;-71
2022/10/19 10:41:27;;;;;;;;;;;26.60;99.90;;;;;;5033186;28;19996;-70
2022/10/19 10:44:05;;;;;;;;;;;26.80;99.90;;;;;;5014738;28;19951;-72
2022/10/19 10:46:53;;;;;;;;;;;26.80;99.90;;;;;;5014531;28;20007;-71
2022/10/19 10:49:23;;;;;;;;;;;26.80;99.90;;;;;;5031912;28;19917;-71
2022/10/19 10:51:54;;;;;;;;;;;26.90;99.90;;;;;;5031909;28;19909;-70
2022/10/19 10:54:24;;;;;;;;;;;26.90;99.90;;;;;;5014175;28;19928;-72
2022/10/19 10:56:56;;;;;;;;;;;27.00;99.90;;;;;;5032092;28;19959;-72
2022/10/19 10:59:25;;;;;;;;;;;26.90;99.90;;;;;;5032241;28;19905;-72
2022/10/19 11:02:11;;;;;;;;;;;27.00;99.90;;;;;;5032035;28;19928;-72
2022/10/19 11:04:43;;;;;;;;;;;27.10;99.90;;;;;;5012808;28;19937;-71
2022/10/19 11:07:17;;;;;;;;;;;27.10;99.90;;;;;;5013288;28;19921;-69
2022/10/19 11:09:49;;;;;;;;;;;27.20;99.90;;;;;;5031907;28;19913;-71
2022/10/19 11:12:18;;;;;;;;;;;27.30;99.90;;;;;;5031963;28;20342;-70
2022/10/19 11:14:43;;;;;;;;;;;27.10;99.90;;;;;;5031539;28;19905;-71
2022/10/19 11:17:29;;;;;;;;;;;27.20;99.90;;;;;;5032384;28;19981;-80
2022/10/19 11:19:58;;;;;;;;;;;27.40;99.90;;;;;;5015187;28;19963;-79
2022/10/19 11:22:41;;;;;;;;;;;27.50;99.90;;;;;;5032953;28;19912;-81
2022/10/19 11:25:07;;;;;;;;;;;27.70;99.90;;;;;;5033919;28;20032;-79
2022/10/19 11:27:52;;;;;;;;;;;27.50;99.90;;;;;;5032638;28;19927;-80
2022/10/19 11:30:19;;;;;;;;;;;27.70;99.90;;;;;;5033216;28;19955;-80
2022/10/19 11:33:00;;;;;;;;;;;27.80;99.90;;;;;;5033644;28;19905;-79
2022/10/19 11:35:37;;;;;;;;;;;27.70;99.90;;;;;;5033862;28;19977;-80
2022/10/19 11:38:11;;;;;;;;;;;27.80;99.90;;;;;;5033572;28;19917;-80
2022/10/19 11:40:39;;;;;;;;;;;27.50;99.90;;;;;;5033825;28;19999;-81
2022/10/19 11:43:11;;;;;;;;;;;27.70;99.90;;;;;;5033469;28;19912;-77
2022/10/19 11:45:42;;;;;;;;;;;27.70;99.90;;;;;;5032937;28;19905;-80
2022/10/19 11:48:16;;;;;;;;;;;27.80;99.90;;;;;;5014958;28;19959;-80
2022/10/19 11:50:45;;;;;;;;;;;27.90;99.90;;;;;;5032325;28;19996;-80
2022/10/19 11:53:11;;;;;;;;;;;27.90;99.90;;;;;;5014498;28;19905;-81
2022/10/19 11:55:40;;;;;;;;;;;27.80;99.90;;;;;;5032364;28;20277;-81
2022/10/19 11:58:10;;;;;;;;;;;28.00;99.90;;;;;;5032260;28;20274;-81
2022/10/19 12:00:43;;;;;;;;;;;27.50;99.90;;;;;;5014811;28;19905;-82
2022/10/19 12:03:09;;;;;;;;;;;27.40;99.90;;;;;;5031992;28;19909;-81
2022/10/19 12:05:36;;;;;;;;;;;27.60;99.90;;;;;;5031833;28;19924;-82
2022/10/19 12:08:21;;;;;;;;;;;27.70;99.90;;;;;;5032606;28;19908;-81
2022/10/19 12:10:56;;;;;;;;;;;27.70;99.90;;;;;;5032142;28;19909;-78
2022/10/19 12:13:37;;;;;;;;;;;27.80;99.90;;;;;;5032383;28;20360;-78
2022/10/19 12:16:04;;;;;;;;;;;27.90;99.90;;;;;;5014525;28;19971;-79
2022/10/19 12:18:37;;;;;;;;;;;28.00;99.90;;;;;;5014681;28;20361;-77
2022/10/19 12:21:10;;;;;;;;;;;27.60;99.90;;;;;;5014927;28;19913;-77
2022/10/19 12:23:43;;;;;;;;;;;27.80;99.90;;;;;;5030077;28;19916;-75
2022/10/19 12:26:11;;;;;;;;;;;27.60;99.90;;;;;;5016705;28;20305;-74
2022/10/19 12:28:39;;;;;;;;;;;27.60;99.90;;;;;;5016448;28;19909;-77
2022/10/19 12:31:05;;;;;;;;;;;27.60;99.90;;;;;;5016638;28;19916;-74
2022/10/19 12:33:41;;;;;;;;;;;27.70;99.90;;;;;;4998480;28;19912;-71
2022/10/19 12:36:07;;;;;;;;;;;27.80;99.90;;;;;;4998455;28;20004;-74
2022/10/19 12:38:38;;;;;;;;;;;27.80;99.90;;;;;;5016693;28;19992;-76
2022/10/19 12:41:33;;;;;;;;;;;27.80;99.90;;;;;;5016320;28;19914;-74
2022/10/19 12:44:05;;;;;;;;;;;27.30;99.90;;;;;;4998635;28;19931;-74
2022/10/19 12:46:31;;;;;;;;;;;26.70;99.90;;;;;;5016417;28;20000;-73
2022/10/19 12:49:15;;;;;;;;;;;26.50;99.90;;;;;;5015580;28;20089;-75
2022/10/19 12:51:45;;;;;;;;;;;26.80;99.90;;;;;;5015906;28;19910;-76
2022/10/19 12:54:11;;;;;;;;;;;26.60;99.90;;;;;;5015857;28;19912;-76
2022/10/19 12:56:48;;;;;;;;;;;26.80;99.90;;;;;;5015394;28;19910;-76
2022/10/19 12:59:21;;;;;;;;;;;26.90;99.90;;;;;;5015257;28;20286;-76
2022/10/19 13:01:47;;;;;;;;;;;27.00;99.90;;;;;;5015359;28;20358;-77
2022/10/19 13:04:13;;;;;;;;;;;27.20;99.90;;;;;;4997552;28;19933;-76
2022/10/19 13:06:49;;;;;;;;;;;27.30;99.90;;;;;;5015091;28;19968;-77
2022/10/19 13:09:32;;;;;;;;;;;27.00;99.90;;;;;;5014863;28;19913;-76
2022/10/19 13:12:13;;;;;;;;;;;27.30;99.90;;;;;;5015498;28;19996;-77
2022/10/19 13:14:48;;;;;;;;;;;27.30;99.90;;;;;;5015106;28;19909;-76
2022/10/19 13:17:32;;;;;;;;;;;27.30;99.90;;;;;;5015267;28;20357;-76
2022/10/19 13:20:14;;;;;;;;;;;27.20;99.90;;;;;;5015218;28;19951;-77
2022/10/19 13:22:44;;;;;;;;;;;27.20;99.90;;;;;;5015165;28;19906;-76
2022/10/19 13:25:30;;;;;;;;;;;27.30;99.90;;;;;;5015000;28;20000;-77
2022/10/19 13:28:01;;;;;;;;;;;27.20;99.90;;;;;;5014760;28;19961;-78
2022/10/19 13:30:40;;;;;;;;;;;27.00;99.90;;;;;;5015154;28;19910;-77
2022/10/19 13:33:24;;;;;;;;;;;27.10;99.90;;;;;;5015861;28;19906;-77
2022/10/19 13:36:05;;;;;;;;;;;27.00;99.90;;;;;;5014934;28;19906;-77
2022/10/19 13:38:32;;;;;;;;;;;27.00;99.90;;;;;;5015018;28;19977;-77
2022/10/19 13:41:01;;;;;;;;;;;26.90;99.90;;;;;;5015168;28;19928;-76
2022/10/19 13:43:32;;;;;;;;;;;27.10;99.90;;;;;;5014903;28;19948;-76
2022/10/19 13:46:06;;;;;;;;;;;27.10;99.90;;;;;;5015132;28;20032;-76
2022/10/19 13:48:50;;;;;;;;;;;27.10;99.90;;;;;;5014840;28;19914;-77
2022/10/19 13:51:16;;;;;;;;;;;27.10;99.90;;;;;;4996751;28;19917;-76
2022/10/19 13:53:56;;;;;;;;;;;26.90;99.90;;;;;;5014093;28;19913;-75
2022/10/19 13:56:31;;;;;;;;;;;26.60;99.90;;;;;;5014480;28;19996;-76
2022/10/19 13:59:16;;;;;;;;;;;26.50;99.90;;;;;;5014217;28;19906;-76
2022/10/19 14:02:00;;;;;;;;;;;26.50;99.90;;;;;;5014676;28;20341;-76
2022/10/19 14:04:35;;;;;;;;;;;26.50;99.90;;;;;;5014118;28;19913;-76
2022/10/19 14:07:34;;;;;;;;;;;26.60;99.90;;;;;;4996158;28;20342;-76
2022/10/19 14:10:00;;;;;;;;;;;26.60;99.90;;;;;;4970567;28;19914;-77
2022/10/19 14:12:30;;;;;;;;;;;26.50;99.90;;;;;;5014320;28;19936;-78
2022/10/19 14:14:57;;;;;;;;;;;26.50;99.90;;;;;;5013740;28;19912;-77
2022/10/19 14:17:24;;;;;;;;;;;26.40;99.90;;;;;;5014083;28;19905;-76
2022/10/19 14:19:55;;;;;;;;;;;26.20;99.90;;;;;;5014038;28;19932;-76
2022/10/19 14:22:32;;;;;;;;;;;26.30;99.90;;;;;;5013921;28;19979;-77
2022/10/19 14:25:07;;;;;;;;;;;26.10;99.90;;;;;;5014093;28;20000;-73
2022/10/19 14:27:33;;;;;;;;;;;26.00;99.90;;;;;;5013765;28;19905;-74
2022/10/19 14:29:59;;;;;;;;;;;26.00;99.90;;;;;;5013484;28;19968;-75
2022/10/19 14:32:27;;;;;;;;;;;25.90;99.90;;;;;;5013806;28;19909;-76